Ana Sayfa
METAR-TAF:

METAR-TAF

Havaalanları :

Zafer Havalimanı

Kütahya, Türkiye

Enlem: 39-06-41N, Boylam: 30-07-48E, yükseklik: 1013 m

Güncel hava durumu gözlemi

Rapor saat 06:50 UTC de 36 dakika önce yapıldı.
Rüzgar değişken yönden 2 kt
Sıcaklık 2°C
Nem 69%
Basınç 1020 hPa
Görüş mesafesi 10 km veya daha fazla
1500 m altında bulut yok ve kümülonimbus yok

METAR: LTBZ 250650Z VRB02KT CAVOK 02/M03 Q1020

Saat: 10:26 (07:26 UTC)

Tahmin

Rapor saat 04:40 UTC de 2 saat ve 46 dakika önce yapıldı.
Ayın 25'si saat 06 UTC'den ayın 25'si saat 15 UTC'ye kadar geçerli Tahmin
Rüzgar değişken yönden 2 kt
Görüş mesafesi 10 km veya daha fazla
1500 m altında bulut yok ve kümülonimbus yok

TAF: LTBZ 250440Z 2506/2515 VRB02KT CAVOK

4.000'den fazla havaalanı için hava durumu gözlemleri ve tahminleri (METAR ve TAF raporları).

Kullanılabilir istasyonlar harita üzerinde sarı ve kırmızı noktalarla gösterilir.

İstasyonun adını görmek için fareyi noktanın üzerinde gezdirin.

Sonrasında hava gözlem ve tahminlerini görmek için tıklayın.

Haritayı değiştirmek için: yaklaştırmak için siyah artı işaretli yeşil düğmeye ve uzaklaştırmak için de eksi işaretli düğmeye hızla tıklayın; bitişik haritalar için yeşil okları kullanın.


METAR-TAF: